Time;durP1;ratioP1;P1;durP2;ratioP2;P2;SDS_P1;SDS_P2;PMS_P1;PMS_P2;Temp;Humidity;BMP_temperature;BMP_pressure;BME280_temperature;BME280_humidity;BME280_pressure;Samples;Min_cycle;Max_cycle;Signal;HPM_P1;HPM_P2
2023/08/06 00:01:31;;;;;;;6.53;5.93;;;;;;;;;;5040682;28;20457;-72
2023/08/06 00:03:59;;;;;;;6.80;6.10;;;;;;;;;;5031415;28;20500;-72
2023/08/06 00:06:26;;;;;;;7.00;6.40;;;;;;;;;;5037688;28;20454;-72
2023/08/06 00:08:52;;;;;;;7.33;6.47;;;;;;;;;;5037236;28;20991;-72
2023/08/06 00:11:19;;;;;;;6.90;6.30;;;;;;;;;;5036863;28;20573;-72
2023/08/06 00:13:46;;;;;;;10.10;7.13;;;;;;;;;;5037277;28;20906;-72
2023/08/06 00:16:13;;;;;;;7.43;6.83;;;;;;;;;;5037220;28;20534;-72
2023/08/06 00:18:40;;;;;;;6.67;6.07;;;;;;;;;;5033158;28;20487;-72
2023/08/06 00:21:06;;;;;;;7.60;5.97;;;;;;;;;;5033710;28;20974;-72
2023/08/06 00:23:33;;;;;;;6.50;5.90;;;;;;;;;;5040787;28;20528;-72
2023/08/06 00:25:59;;;;;;;8.17;7.03;;;;;;;;;;5040670;28;20489;-72
2023/08/06 00:28:25;;;;;;;8.83;5.87;;;;;;;;;;5040289;28;20573;-72
2023/08/06 00:30:54;;;;;;;6.43;5.67;;;;;;;;;;5040772;28;20441;-72
2023/08/06 00:33:21;;;;;;;6.50;5.90;;;;;;;;;;5040095;28;20469;-72
2023/08/06 00:35:47;;;;;;;6.87;6.20;;;;;;;;;;5040677;28;20518;-72
2023/08/06 00:38:14;;;;;;;7.40;6.80;;;;;;;;;;5040593;28;20544;-72
2023/08/06 00:40:40;;;;;;;8.27;6.60;;;;;;;;;;5038059;28;21277;-72
2023/08/06 00:43:06;;;;;;;7.23;6.53;;;;;;;;;;5039469;28;21244;-72
2023/08/06 00:45:35;;;;;;;6.47;5.87;;;;;;;;;;5043687;28;20492;-71
2023/08/06 00:48:03;;;;;;;6.80;6.20;;;;;;;;;;5042756;28;20560;-72
2023/08/06 00:50:29;;;;;;;11.67;6.77;;;;;;;;;;5039815;28;20544;-72
2023/08/06 00:52:56;;;;;;;8.97;6.63;;;;;;;;;;5043501;28;21220;-72
2023/08/06 00:55:22;;;;;;;8.63;7.47;;;;;;;;;;5043693;28;20528;-72
2023/08/06 00:57:50;;;;;;;7.97;6.23;;;;;;;;;;5043513;28;20537;-72
2023/08/06 01:00:16;;;;;;;6.90;6.20;;;;;;;;;;5043428;28;20461;-72
2023/08/06 01:02:43;;;;;;;7.87;7.17;;;;;;;;;;5042557;28;21036;-72
2023/08/06 01:05:11;;;;;;;6.90;6.20;;;;;;;;;;5036966;28;20489;-72
2023/08/06 01:07:44;;;;;;;7.27;6.60;;;;;;;;;;5043523;28;20519;-72
2023/08/06 01:10:20;;;;;;;7.60;6.90;;;;;;;;;;5043341;28;20497;-72
2023/08/06 01:12:49;;;;;;;7.83;7.10;;;;;;;;;;5043253;28;20508;-72
2023/08/06 01:15:18;;;;;;;8.23;7.30;;;;;;;;;;5042992;28;20521;-73
2023/08/06 01:17:46;;;;;;;7.43;6.63;;;;;;;;;;5042852;28;20962;-73
2023/08/06 01:20:13;;;;;;;7.90;7.20;;;;;;;;;;5043360;28;20517;-73
2023/08/06 01:22:41;;;;;;;9.03;7.33;;;;;;;;;;5043456;28;20532;-72
2023/08/06 01:25:08;;;;;;;8.60;7.80;;;;;;;;;;5042615;28;20496;-73
2023/08/06 01:27:45;;;;;;;8.60;7.80;;;;;;;;;;5042651;28;21041;-73
2023/08/06 01:30:13;;;;;;;8.17;7.37;;;;;;;;;;5042966;28;20501;-73
2023/08/06 01:32:43;;;;;;;8.97;8.07;;;;;;;;;;5042593;28;20591;-73
2023/08/06 01:35:11;;;;;;;9.70;8.30;;;;;;;;;;5042814;28;20526;-73
2023/08/06 01:37:38;;;;;;;8.90;7.50;;;;;;;;;;5042849;28;20537;-73
2023/08/06 01:40:10;;;;;;;8.97;8.10;;;;;;;;;;5042976;28;20445;-72
2023/08/06 01:42:36;;;;;;;9.33;8.30;;;;;;;;;;5040172;28;20611;-73
2023/08/06 01:45:03;;;;;;;9.33;8.33;;;;;;;;;;5043343;28;20606;-74
2023/08/06 01:47:29;;;;;;;9.37;8.50;;;;;;;;;;5042244;28;20517;-73
2023/08/06 01:49:56;;;;;;;9.37;8.47;;;;;;;;;;5042131;28;20516;-73
2023/08/06 01:52:22;;;;;;;11.60;8.60;;;;;;;;;;5042418;28;20481;-73
2023/08/06 01:54:49;;;;;;;9.80;8.80;;;;;;;;;;5042614;28;20989;-74
2023/08/06 01:57:16;;;;;;;9.43;7.77;;;;;;;;;;5035755;28;20529;-73
2023/08/06 01:59:43;;;;;;;9.23;8.33;;;;;;;;;;5042836;28;20509;-73
2023/08/06 02:02:10;;;;;;;9.17;8.23;;;;;;;;;;5034388;28;20565;-73
2023/08/06 02:04:36;;;;;;;10.57;9.00;;;;;;;;;;5041884;28;20512;-73
2023/08/06 02:07:02;;;;;;;12.30;9.33;;;;;;;;;;5041980;28;21025;-73
2023/08/06 02:09:29;;;;;;;9.70;8.40;;;;;;;;;;5042626;28;20537;-73
2023/08/06 02:11:55;;;;;;;9.80;8.80;;;;;;;;;;5041807;28;20465;-72
2023/08/06 02:14:23;;;;;;;10.00;9.00;;;;;;;;;;5042012;28;20529;-73
2023/08/06 02:16:50;;;;;;;10.17;9.17;;;;;;;;;;5042605;28;20557;-72
2023/08/06 02:19:16;;;;;;;10.87;9.10;;;;;;;;;;5042611;28;20927;-72
2023/08/06 02:21:43;;;;;;;13.37;9.47;;;;;;;;;;5042148;28;20456;-72
2023/08/06 02:24:09;;;;;;;11.20;9.40;;;;;;;;;;5042195;28;20518;-72
2023/08/06 02:26:36;;;;;;;11.77;9.93;;;;;;;;;;5041790;28;20481;-72
2023/08/06 02:29:02;;;;;;;10.53;9.43;;;;;;;;;;5047824;28;20470;-72
2023/08/06 02:31:30;;;;;;;10.47;9.57;;;;;;;;;;5041515;28;20536;-72
2023/08/06 02:33:57;;;;;;;13.37;9.77;;;;;;;;;;5041240;28;20461;-72
2023/08/06 02:36:23;;;;;;;14.50;10.70;;;;;;;;;;5041163;28;20454;-71
2023/08/06 02:38:49;;;;;;;13.10;9.13;;;;;;;;;;5039011;28;20465;-72
2023/08/06 02:41:16;;;;;;;10.90;9.87;;;;;;;;;;5041346;28;20442;-73
2023/08/06 02:43:42;;;;;;;11.70;10.53;;;;;;;;;;5041735;28;20542;-72
2023/08/06 02:46:09;;;;;;;11.37;9.90;;;;;;;;;;5040910;28;20525;-73
2023/08/06 02:48:36;;;;;;;11.60;10.40;;;;;;;;;;5041035;28;20533;-73
2023/08/06 02:51:03;;;;;;;11.27;9.23;;;;;;;;;;5041540;28;20902;-72
2023/08/06 02:53:29;;;;;;;14.70;9.43;;;;;;;;;;5042095;28;20509;-72
2023/08/06 02:55:56;;;;;;;11.77;10.47;;;;;;;;;;5039624;28;20553;-72
2023/08/06 02:58:22;;;;;;;10.90;9.80;;;;;;;;;;5041158;28;20453;-72
2023/08/06 03:00:59;;;;;;;10.50;9.50;;;;;;;;;;5041427;28;20465;-71
2023/08/06 03:03:26;;;;;;;11.10;9.50;;;;;;;;;;5036281;28;20509;-74
2023/08/06 03:05:54;;;;;;;13.40;9.20;;;;;;;;;;5041409;28;20482;-73
2023/08/06 03:08:22;;;;;;;24.43;11.70;;;;;;;;;;5040672;28;20529;-73
2023/08/06 03:10:48;;;;;;;12.80;10.90;;;;;;;;;;5041101;28;20481;-73
2023/08/06 03:13:15;;;;;;;16.33;10.00;;;;;;;;;;5037962;28;20516;-73
2023/08/06 03:15:41;;;;;;;16.93;10.70;;;;;;;;;;5030715;28;20450;-73
2023/08/06 03:18:07;;;;;;;11.50;10.10;;;;;;;;;;5040766;28;20549;-72
2023/08/06 03:20:34;;;;;;;12.50;11.23;;;;;;;;;;5041147;28;20481;-71
2023/08/06 03:23:02;;;;;;;11.70;10.50;;;;;;;;;;5040843;28;20461;-71
2023/08/06 03:25:28;;;;;;;11.90;9.27;;;;;;;;;;5041173;28;20540;-73
2023/08/06 03:27:55;;;;;;;11.87;10.60;;;;;;;;;;5041000;28;20484;-72
2023/08/06 03:30:21;;;;;;;13.50;11.00;;;;;;;;;;5040411;28;20544;-72
2023/08/06 03:32:48;;;;;;;14.93;10.20;;;;;;;;;;5040491;28;20462;-72
2023/08/06 03:35:14;;;;;;;12.67;10.47;;;;;;;;;;5040703;28;20466;-72
2023/08/06 03:37:40;;;;;;;10.37;8.90;;;;;;;;;;5040857;28;20482;-71
2023/08/06 03:40:09;;;;;;;11.50;9.67;;;;;;;;;;5040724;28;20446;-72
2023/08/06 03:42:36;;;;;;;15.00;10.17;;;;;;;;;;5028869;28;20539;-72
2023/08/06 03:45:02;;;;;;;13.07;10.80;;;;;;;;;;5040487;28;20958;-72
2023/08/06 03:47:29;;;;;;;13.67;12.27;;;;;;;;;;5040232;28;20462;-72
2023/08/06 03:49:55;;;;;;;13.20;11.50;;;;;;;;;;5035543;28;20489;-72
2023/08/06 03:52:22;;;;;;;11.17;10.17;;;;;;;;;;5032006;28;20468;-72
2023/08/06 03:54:48;;;;;;;11.70;10.70;;;;;;;;;;5037438;28;20466;-72
2023/08/06 03:57:16;;;;;;;13.53;10.13;;;;;;;;;;5040694;28;20526;-72
2023/08/06 03:59:42;;;;;;;11.97;10.70;;;;;;;;;;5040651;28;20561;-72
2023/08/06 04:02:08;;;;;;;10.57;9.20;;;;;;;;;;5040715;28;20521;-72
2023/08/06 04:04:35;;;;;;;10.37;9.37;;;;;;;;;;5031790;28;20545;-73
2023/08/06 04:07:01;;;;;;;11.23;10.13;;;;;;;;;;5040017;28;21012;-72
2023/08/06 04:09:28;;;;;;;10.77;9.77;;;;;;;;;;5040435;28;20470;-72
2023/08/06 04:11:55;;;;;;;14.10;11.03;;;;;;;;;;5039813;28;20504;-72
2023/08/06 04:14:23;;;;;;;17.07;10.17;;;;;;;;;;5040046;28;20521;-72
2023/08/06 04:16:49;;;;;;;10.97;9.90;;;;;;;;;;5040269;28;20622;-72
2023/08/06 04:19:15;;;;;;;12.50;11.33;;;;;;;;;;5041847;28;21195;-71
2023/08/06 04:21:42;;;;;;;12.80;10.43;;;;;;;;;;5044497;28;20505;-72
2023/08/06 04:24:08;;;;;;;11.80;10.60;;;;;;;;;;5044346;28;20526;-71
2023/08/06 04:26:35;;;;;;;13.37;11.93;;;;;;;;;;5044413;28;20480;-72
2023/08/06 04:29:01;;;;;;;10.53;9.63;;;;;;;;;;5044315;28;20537;-71
2023/08/06 04:31:29;;;;;;;13.30;11.00;;;;;;;;;;5043629;28;20465;-71
2023/08/06 04:33:55;;;;;;;12.90;11.60;;;;;;;;;;5043806;28;20477;-71
2023/08/06 04:36:22;;;;;;;11.43;10.17;;;;;;;;;;5044336;28;20485;-71
2023/08/06 04:38:48;;;;;;;12.57;10.67;;;;;;;;;;5043940;28;20453;-71
2023/08/06 04:41:15;;;;;;;12.90;11.03;;;;;;;;;;5044459;28;20442;-70
2023/08/06 04:43:41;;;;;;;12.23;10.20;;;;;;;;;;5043798;28;20490;-71
2023/08/06 04:46:07;;;;;;;11.40;10.20;;;;;;;;;;5043542;28;21219;-71
2023/08/06 04:48:35;;;;;;;13.70;10.73;;;;;;;;;;5043424;28;20529;-70
2023/08/06 04:51:01;;;;;;;13.37;10.33;;;;;;;;;;5039318;28;21342;-70
2023/08/06 04:53:27;;;;;;;10.27;9.10;;;;;;;;;;5043332;28;20525;-71
2023/08/06 04:55:53;;;;;;;10.03;9.03;;;;;;;;;;5039537;28;20474;-71
2023/08/06 04:58:19;;;;;;;10.80;9.67;;;;;;;;;;5040436;28;20243;-70
2023/08/06 05:00:46;;;;;;;10.20;9.30;;;;;;;;;;5043600;28;20454;-71
2023/08/06 05:03:12;;;;;;;11.60;9.00;;;;;;;;;;5041009;28;20518;-70
2023/08/06 05:05:42;;;;;;;10.67;9.20;;;;;;;;;;5037036;28;20622;-71
2023/08/06 05:08:08;;;;;;;9.90;8.90;;;;;;;;;;5044495;28;20549;-70
2023/08/06 05:10:34;;;;;;;9.80;8.90;;;;;;;;;;5043878;28;20500;-71
2023/08/06 05:13:01;;;;;;;10.20;9.30;;;;;;;;;;5043049;28;20521;-72
2023/08/06 05:15:27;;;;;;;13.60;8.30;;;;;;;;;;5044141;28;20603;-71
2023/08/06 05:17:54;;;;;;;10.40;9.30;;;;;;;;;;5043073;28;20538;-71
2023/08/06 05:20:20;;;;;;;11.30;9.60;;;;;;;;;;5043686;28;20484;-72
2023/08/06 05:22:48;;;;;;;10.70;9.00;;;;;;;;;;5043432;28;20513;-71
2023/08/06 05:25:15;;;;;;;12.80;10.13;;;;;;;;;;5043582;28;20473;-71
2023/08/06 05:27:41;;;;;;;10.63;9.20;;;;;;;;;;5042691;28;20473;-71
2023/08/06 05:30:08;;;;;;;11.83;9.77;;;;;;;;;;5042867;28;20498;-71
2023/08/06 05:32:35;;;;;;;9.80;8.80;;;;;;;;;;5043157;28;20457;-71
2023/08/06 05:35:01;;;;;;;10.13;9.03;;;;;;;;;;5043662;28;20552;-71
2023/08/06 05:37:27;;;;;;;15.87;9.40;;;;;;;;;;5039791;28;21038;-70
2023/08/06 05:39:55;;;;;;;9.77;8.77;;;;;;;;;;5037810;28;20458;-71
2023/08/06 05:42:22;;;;;;;10.57;8.53;;;;;;;;;;5042076;28;20521;-71
2023/08/06 05:44:50;;;;;;;10.37;8.73;;;;;;;;;;5042836;28;20958;-71
2023/08/06 05:47:16;;;;;;;9.67;8.77;;;;;;;;;;5042359;28;20587;-72
2023/08/06 05:49:43;;;;;;;9.70;8.70;;;;;;;;;;5042390;28;20556;-72
2023/08/06 05:52:09;;;;;;;8.73;7.80;;;;;;;;;;5035477;28;20476;-72
2023/08/06 05:54:35;;;;;;;8.23;7.57;;;;;;;;;;5042771;28;20485;-72
2023/08/06 05:57:04;;;;;;;8.40;7.50;;;;;;;;;;5042038;28;20445;-71
2023/08/06 05:59:30;;;;;;;7.80;7.10;;;;;;;;;;5042914;28;20500;-72
2023/08/06 06:01:56;;;;;;;7.03;6.43;;;;;;;;;;5031419;28;20496;-71
2023/08/06 06:04:23;;;;;;;10.20;5.80;;;;;;;;;;5041885;28;20526;-71
2023/08/06 06:06:49;;;;;;;4.40;3.93;;;;;;;;;;5042202;28;20577;-72
2023/08/06 06:09:15;;;;;;;8.70;4.87;;;;;;;;;;5042425;28;20516;-71
2023/08/06 06:11:42;;;;;;;5.03;4.53;;;;;;;;;;5042433;28;20564;-71
2023/08/06 06:14:10;;;;;;;8.90;4.00;;;;;;;;;;5034477;28;20506;-72
2023/08/06 06:16:36;;;;;;;5.97;4.60;;;;;;;;;;5035319;28;20489;-72
2023/08/06 06:19:02;;;;;;;5.33;4.73;;;;;;;;;;5034490;28;20450;-71
2023/08/06 06:21:29;;;;;;;5.67;5.03;;;;;;;;;;5034304;28;20557;-71
2023/08/06 06:23:56;;;;;;;5.87;5.37;;;;;;;;;;5034334;28;20536;-72
2023/08/06 06:26:22;;;;;;;6.27;5.63;;;;;;;;;;5033199;28;20449;-71
2023/08/06 06:28:49;;;;;;;6.70;5.73;;;;;;;;;;5037792;28;20531;-72
2023/08/06 06:31:17;;;;;;;6.77;5.93;;;;;;;;;;5031812;28;20565;-71
2023/08/06 06:33:44;;;;;;;6.80;6.10;;;;;;;;;;5041102;28;20546;-72
2023/08/06 06:36:10;;;;;;;5.40;5.00;;;;;;;;;;5042479;28;20454;-71
2023/08/06 06:38:37;;;;;;;4.43;4.03;;;;;;;;;;5041292;28;20501;-71
2023/08/06 06:41:04;;;;;;;6.50;4.00;;;;;;;;;;5040999;28;20517;-71
2023/08/06 06:43:30;;;;;;;4.60;4.20;;;;;;;;;;5041287;28;20450;-71
2023/08/06 06:45:57;;;;;;;4.07;3.73;;;;;;;;;;5042333;28;20965;-71
2023/08/06 06:48:26;;;;;;;4.50;4.10;;;;;;;;;;5041042;28;20468;-71
2023/08/06 06:50:52;;;;;;;4.60;4.10;;;;;;;;;;5040982;28;20478;-71
2023/08/06 06:53:19;;;;;;;4.03;3.73;;;;;;;;;;5034275;28;20490;-71
2023/08/06 06:55:45;;;;;;;4.63;3.70;;;;;;;;;;5040992;28;20525;-71
2023/08/06 06:58:11;;;;;;;4.23;3.80;;;;;;;;;;5041313;28;21016;-71
2023/08/06 07:00:38;;;;;;;4.23;3.83;;;;;;;;;;5041544;28;20506;-71
2023/08/06 07:03:04;;;;;;;3.27;2.97;;;;;;;;;;5040753;28;20488;-71
2023/08/06 07:05:33;;;;;;;6.40;3.53;;;;;;;;;;5038294;28;20511;-72
2023/08/06 07:07:59;;;;;;;4.40;3.57;;;;;;;;;;5038634;28;20520;-72
2023/08/06 07:10:26;;;;;;;4.10;3.37;;;;;;;;;;5041015;28;20577;-72
2023/08/06 07:12:53;;;;;;;4.17;3.73;;;;;;;;;;5040364;28;20509;-72
2023/08/06 07:15:19;;;;;;;3.47;3.13;;;;;;;;;;5041624;28;20490;-72
2023/08/06 07:17:45;;;;;;;6.57;3.17;;;;;;;;;;5041016;28;20465;-72
2023/08/06 07:20:12;;;;;;;6.70;3.97;;;;;;;;;;5038593;28;20457;-72
2023/08/06 07:22:40;;;;;;;4.13;3.80;;;;;;;;;;5041185;28;20456;-71
2023/08/06 07:25:06;;;;;;;4.57;4.17;;;;;;;;;;5041396;28;20454;-71
2023/08/06 07:27:33;;;;;;;4.23;3.50;;;;;;;;;;5040773;28;20489;-71
2023/08/06 07:29:59;;;;;;;4.43;3.60;;;;;;;;;;5041134;28;20454;-71
2023/08/06 07:32:26;;;;;;;4.23;3.93;;;;;;;;;;5041121;28;20454;-71
2023/08/06 07:34:56;;;;;;;4.33;3.73;;;;;;;;;;5040561;28;20469;-71
2023/08/06 07:37:22;;;;;;;4.00;3.70;;;;;;;;;;5041029;28;20454;-71
2023/08/06 07:39:50;;;;;;;6.07;4.27;;;;;;;;;;5040846;28;20457;-71
2023/08/06 07:42:20;;;;;;;4.50;3.70;;;;;;;;;;5040754;28;20538;-72
2023/08/06 07:44:50;;;;;;;5.13;3.70;;;;;;;;;;5041204;28;20548;-72
2023/08/06 07:47:17;;;;;;;5.10;4.17;;;;;;;;;;5040803;28;20458;-72
2023/08/06 07:49:43;;;;;;;4.70;3.40;;;;;;;;;;5040563;28;20525;-72
2023/08/06 07:52:09;;;;;;;4.53;3.73;;;;;;;;;;5040942;28;20525;-72
2023/08/06 07:54:37;;;;;;;6.50;3.47;;;;;;;;;;5041093;28;20861;-71
2023/08/06 07:57:05;;;;;;;6.10;3.30;;;;;;;;;;5040535;28;20480;-72
2023/08/06 07:59:32;;;;;;;4.90;3.07;;;;;;;;;;5040926;28;20450;-71
2023/08/06 08:01:58;;;;;;;3.23;2.83;;;;;;;;;;5040582;28;20474;-71
2023/08/06 08:04:24;;;;;;;3.33;3.03;;;;;;;;;;5040495;28;20545;-71
2023/08/06 08:06:51;;;;;;;3.53;3.23;;;;;;;;;;5040509;28;20458;-71
2023/08/06 08:09:18;;;;;;;4.70;3.33;;;;;;;;;;5040891;28;20501;-72
2023/08/06 08:11:44;;;;;;;4.47;3.00;;;;;;;;;;5037209;28;20560;-72
2023/08/06 08:14:12;;;;;;;2.97;2.67;;;;;;;;;;5039981;28;20550;-72
2023/08/06 08:16:38;;;;;;;4.23;3.30;;;;;;;;;;5036092;28;20538;-73
2023/08/06 08:19:05;;;;;;;3.83;3.10;;;;;;;;;;5036522;28;20560;-72
2023/08/06 08:21:31;;;;;;;4.40;3.80;;;;;;;;;;5039436;28;20715;-72
2023/08/06 08:23:57;;;;;;;4.27;3.07;;;;;;;;;;5039213;28;20470;-72
2023/08/06 08:26:24;;;;;;;4.80;3.47;;;;;;;;;;5040488;28;20445;-72
2023/08/06 08:28:51;;;;;;;4.50;3.80;;;;;;;;;;5038546;28;20476;-71
2023/08/06 08:31:18;;;;;;;4.73;3.60;;;;;;;;;;5037809;28;20576;-72
2023/08/06 08:33:45;;;;;;;4.40;4.00;;;;;;;;;;5036599;28;20532;-71
2023/08/06 08:36:11;;;;;;;4.23;3.73;;;;;;;;;;5035247;28;20533;-71
2023/08/06 08:38:38;;;;;;;3.93;3.53;;;;;;;;;;5036777;28;20545;-72
2023/08/06 08:41:04;;;;;;;6.77;3.60;;;;;;;;;;5035965;28;20437;-72
2023/08/06 08:43:31;;;;;;;5.07;3.43;;;;;;;;;;5035733;28;20522;-71
2023/08/06 08:45:58;;;;;;;4.07;3.30;;;;;;;;;;5036818;28;20464;-71
2023/08/06 08:48:26;;;;;;;5.90;2.83;;;;;;;;;;5036972;28;20457;-71
2023/08/06 08:50:53;;;;;;;3.63;2.80;;;;;;;;;;5037397;28;20569;-71
2023/08/06 08:53:19;;;;;;;3.00;2.80;;;;;;;;;;5038392;28;20569;-70
2023/08/06 08:55:47;;;;;;;3.77;3.37;;;;;;;;;;5039534;28;20469;-71
2023/08/06 08:58:14;;;;;;;3.57;3.27;;;;;;;;;;5039498;28;20486;-71
2023/08/06 09:00:42;;;;;;;5.30;3.20;;;;;;;;;;5039001;28;20606;-71
2023/08/06 09:03:09;;;;;;;4.40;3.10;;;;;;;;;;5038411;28;20492;-72
2023/08/06 09:05:38;;;;;;;3.20;2.47;;;;;;;;;;5041641;28;20474;-71
2023/08/06 09:08:05;;;;;;;3.03;2.73;;;;;;;;;;5042006;28;20529;-72
2023/08/06 09:10:31;;;;;;;3.30;3.00;;;;;;;;;;5034599;28;21247;-71
2023/08/06 09:12:59;;;;;;;3.20;2.80;;;;;;;;;;5038042;28;20488;-72
2023/08/06 09:15:25;;;;;;;3.60;3.30;;;;;;;;;;5037551;28;20457;-72
2023/08/06 09:17:52;;;;;;;4.00;3.60;;;;;;;;;;5042968;28;20458;-71
2023/08/06 09:20:19;;;;;;;3.20;2.90;;;;;;;;;;5040032;28;20476;-71
2023/08/06 09:22:47;;;;;;;5.17;3.30;;;;;;;;;;5034743;28;20829;-70
2023/08/06 09:25:21;;;;;;;3.93;2.80;;;;;;;;;;5043182;28;20978;-70
2023/08/06 09:27:48;;;;;;;4.23;2.83;;;;;;;;;;5042451;28;20528;-70
2023/08/06 09:30:29;;;;;;;2.63;2.40;;;;;;;;;;5032474;28;21247;-70
2023/08/06 09:32:56;;;;;;;2.83;2.53;;;;;;;;;;5042560;28;20454;-70
2023/08/06 09:35:22;;;;;;;2.60;2.23;;;;;;;;;;5033346;28;20493;-70
2023/08/06 09:37:50;;;;;;;2.60;2.40;;;;;;;;;;5036962;28;20455;-71
2023/08/06 09:40:25;;;;;;;2.33;2.13;;;;;;;;;;5034704;28;21037;-70
2023/08/06 09:42:51;;;;;;;2.47;1.73;;;;;;;;;;5035441;28;20496;-71
2023/08/06 09:45:18;;;;;;;1.83;1.70;;;;;;;;;;5034211;28;20442;-70
2023/08/06 09:47:44;;;;;;;2.80;2.30;;;;;;;;;;5035214;28;20461;-71
2023/08/06 09:50:16;;;;;;;1.77;1.60;;;;;;;;;;5036337;28;20522;-71
2023/08/06 09:52:43;;;;;;;3.87;1.87;;;;;;;;;;5036521;28;20533;-77
2023/08/06 09:55:11;;;;;;;2.57;1.63;;;;;;;;;;5031326;28;20527;-77
2023/08/06 09:57:38;;;;;;;6.30;1.73;;;;;;;;;;5032669;28;20477;-77
2023/08/06 10:00:08;;;;;;;3.00;1.97;;;;;;;;;;5041231;28;20449;-76
2023/08/06 10:02:34;;;;;;;3.20;1.50;;;;;;;;;;5029668;28;20463;-77
2023/08/06 10:05:01;;;;;;;3.00;1.57;;;;;;;;;;5037503;28;20548;-76
2023/08/06 10:07:28;;;;;;;2.30;1.40;;;;;;;;;;5041777;28;20449;-76
2023/08/06 10:09:54;;;;;;;2.20;2.00;;;;;;;;;;5039095;28;20486;-77
2023/08/06 10:12:22;;;;;;;1.93;1.73;;;;;;;;;;5040386;28;20492;-76
2023/08/06 10:14:49;;;;;;;2.80;2.40;;;;;;;;;;5002190;28;20964;-77
2023/08/06 10:17:15;;;;;;;3.20;1.90;;;;;;;;;;5002607;28;20443;-77
2023/08/06 10:19:42;;;;;;;2.30;2.10;;;;;;;;;;5003238;28;20527;-77
2023/08/06 10:22:10;;;;;;;2.97;2.00;;;;;;;;;;5011106;28;20462;-75
2023/08/06 10:24:46;;;;;;;2.97;2.27;;;;;;;;;;5014859;28;20462;-77
2023/08/06 10:27:12;;;;;;;3.73;2.30;;;;;;;;;;5016152;28;20486;-76
2023/08/06 10:29:40;;;;;;;3.47;2.33;;;;;;;;;;5002316;28;20965;-76
2023/08/06 10:32:06;;;;;;;3.83;2.47;;;;;;;;;;5010479;28;20519;-77
2023/08/06 10:34:48;;;;;;;2.13;1.93;;;;;;;;;;5004177;28;20459;-76
2023/08/06 10:37:16;;;;;;;2.70;2.40;;;;;;;;;;5001138;28;20502;-76
2023/08/06 10:39:48;;;;;;;4.07;2.40;;;;;;;;;;5004723;28;20957;-76
2023/08/06 10:42:20;;;;;;;14.10;3.50;;;;;;;;;;5008217;28;20474;-77
2023/08/06 10:45:01;;;;;;;3.03;2.73;;;;;;;;;;5019557;28;20455;-77
2023/08/06 10:47:29;;;;;;;3.07;2.77;;;;;;;;;;5008799;28;20447;-77
2023/08/06 10:49:55;;;;;;;2.90;2.60;;;;;;;;;;5007207;28;20519;-77
2023/08/06 10:52:22;;;;;;;3.10;2.80;;;;;;;;;;5010728;28;20518;-77
2023/08/06 10:54:48;;;;;;;2.97;2.60;;;;;;;;;;5008743;28;20514;-77
2023/08/06 10:57:15;;;;;;;2.63;2.43;;;;;;;;;;4994315;28;20468;-77
2023/08/06 10:59:41;;;;;;;2.63;2.43;;;;;;;;;;5013765;28;20546;-76
2023/08/06 11:02:08;;;;;;;4.33;2.27;;;;;;;;;;5015963;28;20454;-76
2023/08/06 11:04:36;;;;;;;2.20;2.00;;;;;;;;;;5016388;28;21215;-76
2023/08/06 11:07:03;;;;;;;2.60;2.10;;;;;;;;;;5011555;28;20494;-76
2023/08/06 11:09:29;;;;;;;2.87;1.90;;;;;;;;;;5004356;28;20547;-77
2023/08/06 11:11:55;;;;;;;3.83;2.00;;;;;;;;;;5003217;28;20495;-77
2023/08/06 11:14:23;;;;;;;2.57;2.30;;;;;;;;;;5032048;28;20504;-77
2023/08/06 11:16:50;;;;;;;3.33;1.80;;;;;;;;;;5037055;28;20521;-77
2023/08/06 11:19:16;;;;;;;2.53;2.33;;;;;;;;;;5039800;28;20561;-76
2023/08/06 11:21:44;;;;;;;3.37;2.30;;;;;;;;;;5038925;28;20521;-76
2023/08/06 11:24:11;;;;;;;3.10;2.03;;;;;;;;;;5036251;28;20496;-77
2023/08/06 11:26:40;;;;;;;2.10;1.90;;;;;;;;;;5037928;28;20480;-76
2023/08/06 11:29:06;;;;;;;2.67;2.20;;;;;;;;;;5039022;28;20465;-77
2023/08/06 11:31:32;;;;;;;3.33;2.40;;;;;;;;;;5040847;28;20505;-76
2023/08/06 11:33:59;;;;;;;3.07;2.47;;;;;;;;;;5040375;28;20513;-76
2023/08/06 11:36:31;;;;;;;4.27;2.60;;;;;;;;;;5040282;28;20529;-76
2023/08/06 11:39:00;;;;;;;2.60;2.30;;;;;;;;;;5040453;28;20452;-76
2023/08/06 11:41:26;;;;;;;2.57;2.37;;;;;;;;;;5037867;28;20477;-76
2023/08/06 11:43:53;;;;;;;3.13;2.20;;;;;;;;;;5033867;28;20472;-77
2023/08/06 11:46:19;;;;;;;2.10;1.90;;;;;;;;;;5039893;28;20492;-76
2023/08/06 11:48:52;;;;;;;3.23;2.23;;;;;;;;;;5039665;28;20529;-75
2023/08/06 11:51:20;;;;;;;4.53;2.20;;;;;;;;;;5039187;28;20484;-77
2023/08/06 11:53:47;;;;;;;3.07;2.57;;;;;;;;;;5034214;28;20968;-76
2023/08/06 11:56:15;;;;;;;2.70;2.50;;;;;;;;;;5036600;28;20442;-75
2023/08/06 11:58:41;;;;;;;3.30;2.40;;;;;;;;;;5033209;28;20516;-74
2023/08/06 12:01:08;;;;;;;2.30;2.10;;;;;;;;;;5040228;28;20485;-74
2023/08/06 12:03:39;;;;;;;2.70;2.20;;;;;;;;;;5039275;28;20517;-75
2023/08/06 12:06:07;;;;;;;2.27;2.07;;;;;;;;;;5034453;28;20770;-75
2023/08/06 12:08:33;;;;;;;4.80;2.30;;;;;;;;;;5033968;28;20457;-77
2023/08/06 12:11:00;;;;;;;3.80;2.37;;;;;;;;;;5039634;28;20504;-76
2023/08/06 12:13:27;;;;;;;3.90;2.37;;;;;;;;;;5030610;28;20497;-77
2023/08/06 12:15:57;;;;;;;5.40;2.47;;;;;;;;;;5032879;28;20474;-77
2023/08/06 12:18:23;;;;;;;5.80;2.40;;;;;;;;;;5036681;28;20482;-78
2023/08/06 12:20:50;;;;;;;2.50;1.90;;;;;;;;;;5039410;28;20440;-77
2023/08/06 12:23:16;;;;;;;2.93;2.60;;;;;;;;;;5039910;28;20541;-77
2023/08/06 12:25:44;;;;;;;2.70;2.30;;;;;;;;;;5035721;28;20520;-77
2023/08/06 12:28:12;;;;;;;2.33;1.60;;;;;;;;;;5033888;28;20462;-77
2023/08/06 12:30:41;;;;;;;2.07;1.87;;;;;;;;;;5039198;28;20549;-76
2023/08/06 12:33:08;;;;;;;3.57;1.93;;;;;;;;;;5038530;28;21001;-76
2023/08/06 12:35:34;;;;;;;2.60;2.17;;;;;;;;;;5038957;28;20946;-77
2023/08/06 12:38:01;;;;;;;2.77;2.47;;;;;;;;;;5039752;28;20494;-76
2023/08/06 12:40:27;;;;;;;2.43;1.70;;;;;;;;;;5041224;28;20545;-77
2023/08/06 12:42:53;;;;;;;2.77;2.30;;;;;;;;;;5041280;28;20874;-77
2023/08/06 12:45:20;;;;;;;3.40;2.30;;;;;;;;;;5043960;28;20552;-76
2023/08/06 12:47:49;;;;;;;2.13;1.93;;;;;;;;;;5036227;28;20476;-79
2023/08/06 12:50:17;;;;;;;2.30;1.90;;;;;;;;;;5037698;28;20461;-76
2023/08/06 12:52:43;;;;;;;4.50;2.00;;;;;;;;;;5035762;28;20746;-77
2023/08/06 12:55:09;;;;;;;2.30;2.10;;;;;;;;;;5039769;28;20450;-75
2023/08/06 12:57:36;;;;;;;1.93;1.70;;;;;;;;;;5036398;28;20445;-77
2023/08/06 13:00:03;;;;;;;1.90;1.70;;;;;;;;;;5041705;28;20492;-76
2023/08/06 13:02:29;;;;;;;2.43;1.63;;;;;;;;;;5042419;28;20468;-76
2023/08/06 13:04:57;;;;;;;2.17;1.97;;;;;;;;;;5035194;28;20822;-75
2023/08/06 13:07:25;;;;;;;2.60;1.93;;;;;;;;;;5041640;28;20453;-76
2023/08/06 13:09:51;;;;;;;2.63;2.43;;;;;;;;;;5033738;28;20457;-73
2023/08/06 13:12:20;;;;;;;2.77;1.90;;;;;;;;;;5037362;28;20478;-75
2023/08/06 13:14:46;;;;;;;2.07;1.90;;;;;;;;;;5034742;28;20512;-77
2023/08/06 13:17:13;;;;;;;2.00;1.77;;;;;;;;;;5035290;28;21064;-75
2023/08/06 13:19:39;;;;;;;2.53;1.70;;;;;;;;;;5036237;28;20472;-76
2023/08/06 13:22:08;;;;;;;2.80;2.23;;;;;;;;;;5038248;28;20461;-74
2023/08/06 13:24:35;;;;;;;2.20;2.00;;;;;;;;;;5035949;28;20442;-74
2023/08/06 13:27:01;;;;;;;2.37;2.17;;;;;;;;;;5037525;28;20544;-74
2023/08/06 13:29:28;;;;;;;2.60;2.40;;;;;;;;;;5042302;28;20974;-74
2023/08/06 13:31:54;;;;;;;2.53;2.33;;;;;;;;;;5033281;28;20490;-74
2023/08/06 13:34:21;;;;;;;2.07;1.90;;;;;;;;;;5035013;28;20517;-73
2023/08/06 13:36:47;;;;;;;2.43;2.23;;;;;;;;;;5041439;28;20461;-74
2023/08/06 13:39:17;;;;;;;2.30;2.10;;;;;;;;;;5042286;28;20489;-74
2023/08/06 13:41:43;;;;;;;2.43;2.23;;;;;;;;;;5041992;28;20511;-77
2023/08/06 13:44:10;;;;;;;2.53;2.07;;;;;;;;;;5041537;28;20485;-76
2023/08/06 13:46:36;;;;;;;2.23;1.97;;;;;;;;;;5042315;28;20541;-76
2023/08/06 13:49:03;;;;;;;2.70;2.10;;;;;;;;;;5039141;28;20473;-76
2023/08/06 13:51:29;;;;;;;2.37;2.00;;;;;;;;;;5039259;28;20456;-76
2023/08/06 13:53:57;;;;;;;2.20;2.00;;;;;;;;;;5035137;28;20581;-75
2023/08/06 13:56:25;;;;;;;2.77;2.10;;;;;;;;;;5038720;28;20446;-77
2023/08/06 13:58:51;;;;;;;3.23;2.70;;;;;;;;;;5042462;28;20457;-75
2023/08/06 14:01:18;;;;;;;3.23;2.33;;;;;;;;;;5038108;28;20441;-75
2023/08/06 14:03:44;;;;;;;3.20;2.10;;;;;;;;;;5034762;28;20459;-75
2023/08/06 14:06:11;;;;;;;3.83;2.10;;;;;;;;;;5034390;28;20474;-76
2023/08/06 14:08:37;;;;;;;2.60;2.40;;;;;;;;;;5037421;28;20473;-76
2023/08/06 14:11:05;;;;;;;2.97;2.77;;;;;;;;;;5032551;28;20479;-76
2023/08/06 14:13:32;;;;;;;3.67;2.50;;;;;;;;;;5036441;28;20558;-77
2023/08/06 14:15:59;;;;;;;2.90;2.60;;;;;;;;;;5033835;28;20496;-76
2023/08/06 14:18:26;;;;;;;2.67;2.37;;;;;;;;;;5036624;28;20866;-76
2023/08/06 14:20:52;;;;;;;4.10;2.90;;;;;;;;;;5041888;28;20493;-76
2023/08/06 14:23:18;;;;;;;3.57;2.43;;;;;;;;;;5040962;28;20564;-76
2023/08/06 14:25:45;;;;;;;2.77;2.30;;;;;;;;;;5031071;28;20481;-75
2023/08/06 14:28:12;;;;;;;2.67;2.27;;;;;;;;;;5036430;28;20493;-75
2023/08/06 14:30:39;;;;;;;2.60;2.23;;;;;;;;;;5031929;28;20631;-75
2023/08/06 14:33:06;;;;;;;2.10;1.90;;;;;;;;;;5038269;28;20522;-75
2023/08/06 14:35:32;;;;;;;2.93;2.30;;;;;;;;;;5036570;28;20489;-75
2023/08/06 14:37:59;;;;;;;4.23;2.43;;;;;;;;;;5041609;28;20465;-76